OERK/RUH METAR and TAF weather

Enter ICAO airport designator
Station Type Date Time Source
OERK METAR 2022/07/01 01:00 UTC NOAA

OERK 010100Z 00000KT CAVOK 29/07 Q1003 NOSIG


Station Type Date Time Source
OERK Decoded METAR 2022/07/01 01:00 UTC NOAA

King Khaled International Airport, Saudi Arabia (OERK) 24-56N 046-43E 612M
Jun 30, 2022 - 09:00 PM EDT / 2022.07.01 0100 UTC
Wind: Calm:0
Visibility: greater than 7 mile(s):0
Temperature: 84 F (29 C)
Dew Point: 44 F (7 C)
Relative Humidity: 24%
Pressure (altimeter): 29.62 in. Hg (1003 hPa)
ob: OERK 010100Z 00000KT CAVOK 29/07 Q1003 NOSIG
cycle: 1

Station Type Date Time Source
OERK TAF 2022/06/30 18:34 UTC NOAA

TAF OERK 301700Z 3018/0124 VRB03KT CAVOK
BECMG 0106/0108 33010KT
BECMG 0118/0120 VRB03KT

Example: see airport list